sensor_id;sensor_type;location;lat;lon;timestamp;P1;durP1;ratioP1;P2;durP2;ratioP2
75689;SDS011;64303;53.118;9.044;2023-08-06T00:01:41;7.13;;;6.45;;
75689;SDS011;64303;53.118;9.044;2023-08-06T00:04:08;7.63;;;6.93;;
75689;SDS011;64303;53.118;9.044;2023-08-06T00:06:34;6.25;;;5.65;;
75689;SDS011;64303;53.118;9.044;2023-08-06T00:09:01;6.47;;;5.68;;
75689;SDS011;64303;53.118;9.044;2023-08-06T00:11:29;8.10;;;6.35;;
75689;SDS011;64303;53.118;9.044;2023-08-06T00:13:56;7.25;;;6.55;;
75689;SDS011;64303;53.118;9.044;2023-08-06T00:16:22;6.95;;;6.43;;
75689;SDS011;64303;53.118;9.044;2023-08-06T00:18:49;6.65;;;6.05;;
75689;SDS011;64303;53.118;9.044;2023-08-06T00:21:15;7.72;;;7.13;;
75689;SDS011;64303;53.118;9.044;2023-08-06T00:23:42;8.05;;;7.25;;
75689;SDS011;64303;53.118;9.044;2023-08-06T00:26:09;7.88;;;5.20;;
75689;SDS011;64303;53.118;9.044;2023-08-06T00:28:37;7.10;;;6.57;;
75689;SDS011;64303;53.118;9.044;2023-08-06T00:31:03;7.65;;;6.90;;
75689;SDS011;64303;53.118;9.044;2023-08-06T00:33:30;6.78;;;6.18;;
75689;SDS011;64303;53.118;9.044;2023-08-06T00:35:56;5.97;;;5.47;;
75689;SDS011;64303;53.118;9.044;2023-08-06T00:38:23;7.45;;;6.85;;
75689;SDS011;64303;53.118;9.044;2023-08-06T00:40:50;7.10;;;6.50;;
75689;SDS011;64303;53.118;9.044;2023-08-06T00:43:17;7.85;;;7.15;;
75689;SDS011;64303;53.118;9.044;2023-08-06T00:45:44;5.25;;;3.70;;
75689;SDS011;64303;53.118;9.044;2023-08-06T00:48:11;7.40;;;6.25;;
75689;SDS011;64303;53.118;9.044;2023-08-06T00:50:37;7.93;;;6.82;;
75689;SDS011;64303;53.118;9.044;2023-08-06T00:53:04;10.55;;;6.05;;
75689;SDS011;64303;53.118;9.044;2023-08-06T00:55:31;6.40;;;5.75;;
75689;SDS011;64303;53.118;9.044;2023-08-06T00:57:57;8.10;;;5.72;;
75689;SDS011;64303;53.118;9.044;2023-08-06T01:00:24;9.40;;;8.63;;
75689;SDS011;64303;53.118;9.044;2023-08-06T01:02:52;10.43;;;9.73;;
75689;SDS011;64303;53.118;9.044;2023-08-06T01:05:19;7.75;;;7.05;;
75689;SDS011;64303;53.118;9.044;2023-08-06T01:08:01;11.80;;;7.00;;
75689;SDS011;64303;53.118;9.044;2023-08-06T01:10:39;6.85;;;6.25;;
75689;SDS011;64303;53.118;9.044;2023-08-06T01:13:11;6.68;;;6.07;;
75689;SDS011;64303;53.118;9.044;2023-08-06T01:15:43;7.28;;;6.68;;
75689;SDS011;64303;53.118;9.044;2023-08-06T01:18:14;8.18;;;7.50;;
75689;SDS011;64303;53.118;9.044;2023-08-06T01:20:42;6.55;;;5.95;;
75689;SDS011;64303;53.118;9.044;2023-08-06T01:23:09;8.18;;;7.15;;
75689;SDS011;64303;53.118;9.044;2023-08-06T01:25:36;6.28;;;5.18;;
75689;SDS011;64303;53.118;9.044;2023-08-06T01:28:09;6.88;;;6.18;;
75689;SDS011;64303;53.118;9.044;2023-08-06T01:30:40;7.97;;;6.85;;
75689;SDS011;64303;53.118;9.044;2023-08-06T01:33:09;8.23;;;7.53;;
75689;SDS011;64303;53.118;9.044;2023-08-06T01:35:36;6.90;;;6.30;;
75689;SDS011;64303;53.118;9.044;2023-08-06T01:38:05;7.43;;;6.63;;
75689;SDS011;64303;53.118;9.044;2023-08-06T01:40:32;6.90;;;6.22;;
75689;SDS011;64303;53.118;9.044;2023-08-06T01:42:59;7.78;;;7.07;;
75689;SDS011;64303;53.118;9.044;2023-08-06T01:45:26;5.93;;;5.32;;
75689;SDS011;64303;53.118;9.044;2023-08-06T01:47:53;7.68;;;7.05;;
75689;SDS011;64303;53.118;9.044;2023-08-06T01:50:19;8.30;;;5.75;;
75689;SDS011;64303;53.118;9.044;2023-08-06T01:52:46;7.65;;;5.43;;
75689;SDS011;64303;53.118;9.044;2023-08-06T01:55:14;7.18;;;6.57;;
75689;SDS011;64303;53.118;9.044;2023-08-06T01:57:41;7.93;;;7.13;;
75689;SDS011;64303;53.118;9.044;2023-08-06T02:00:07;7.30;;;6.57;;
75689;SDS011;64303;53.118;9.044;2023-08-06T02:02:41;7.90;;;6.97;;
75689;SDS011;64303;53.118;9.044;2023-08-06T02:07:35;7.05;;;6.35;;
75689;SDS011;64303;53.118;9.044;2023-08-06T02:10:02;7.80;;;7.10;;
75689;SDS011;64303;53.118;9.044;2023-08-06T02:12:30;7.43;;;6.75;;
75689;SDS011;64303;53.118;9.044;2023-08-06T02:14:57;7.82;;;7.03;;
75689;SDS011;64303;53.118;9.044;2023-08-06T02:17:24;5.60;;;4.53;;
75689;SDS011;64303;53.118;9.044;2023-08-06T02:19:50;7.43;;;6.72;;
75689;SDS011;64303;53.118;9.044;2023-08-06T02:22:17;9.55;;;7.43;;
75689;SDS011;64303;53.118;9.044;2023-08-06T02:24:44;8.48;;;7.65;;
75689;SDS011;64303;53.118;9.044;2023-08-06T02:27:10;8.93;;;8.20;;
75689;SDS011;64303;53.118;9.044;2023-08-06T02:29:38;7.47;;;6.78;;
75689;SDS011;64303;53.118;9.044;2023-08-06T02:32:06;8.00;;;7.35;;
75689;SDS011;64303;53.118;9.044;2023-08-06T02:34:33;10.95;;;10.15;;
75689;SDS011;64303;53.118;9.044;2023-08-06T02:37:00;8.18;;;5.28;;
75689;SDS011;64303;53.118;9.044;2023-08-06T02:39:26;8.13;;;7.32;;
75689;SDS011;64303;53.118;9.044;2023-08-06T02:41:53;6.88;;;6.10;;
75689;SDS011;64303;53.118;9.044;2023-08-06T02:44:19;7.40;;;6.15;;
75689;SDS011;64303;53.118;9.044;2023-08-06T02:46:48;8.45;;;7.68;;
75689;SDS011;64303;53.118;9.044;2023-08-06T02:49:14;7.22;;;5.00;;
75689;SDS011;64303;53.118;9.044;2023-08-06T02:51:41;7.03;;;6.15;;
75689;SDS011;64303;53.118;9.044;2023-08-06T02:54:08;7.78;;;6.97;;
75689;SDS011;64303;53.118;9.044;2023-08-06T02:56:35;8.50;;;7.70;;
75689;SDS011;64303;53.118;9.044;2023-08-06T02:59:14;7.78;;;6.55;;
75689;SDS011;64303;53.118;9.044;2023-08-06T03:02:01;11.15;;;6.75;;
75689;SDS011;64303;53.118;9.044;2023-08-06T03:04:38;7.18;;;6.47;;
75689;SDS011;64303;53.118;9.044;2023-08-06T03:07:05;8.27;;;6.93;;
75689;SDS011;64303;53.118;9.044;2023-08-06T03:09:39;8.13;;;7.32;;
75689;SDS011;64303;53.118;9.044;2023-08-06T03:12:07;7.05;;;6.38;;
75689;SDS011;64303;53.118;9.044;2023-08-06T03:14:34;6.82;;;5.45;;
75689;SDS011;64303;53.118;9.044;2023-08-06T03:17:05;9.57;;;6.85;;
75689;SDS011;64303;53.118;9.044;2023-08-06T03:19:31;8.32;;;7.35;;
75689;SDS011;64303;53.118;9.044;2023-08-06T03:21:58;8.38;;;7.50;;
75689;SDS011;64303;53.118;9.044;2023-08-06T03:24:25;8.00;;;7.35;;
75689;SDS011;64303;53.118;9.044;2023-08-06T03:26:52;7.22;;;4.65;;
75689;SDS011;64303;53.118;9.044;2023-08-06T03:29:18;10.07;;;8.88;;
75689;SDS011;64303;53.118;9.044;2023-08-06T03:31:47;8.57;;;5.65;;
75689;SDS011;64303;53.118;9.044;2023-08-06T03:34:17;7.85;;;7.15;;
75689;SDS011;64303;53.118;9.044;2023-08-06T03:36:44;8.35;;;7.57;;
75689;SDS011;64303;53.118;9.044;2023-08-06T03:39:11;8.43;;;6.25;;
75689;SDS011;64303;53.118;9.044;2023-08-06T03:41:40;10.95;;;8.77;;
75689;SDS011;64303;53.118;9.044;2023-08-06T03:44:06;6.75;;;4.80;;
75689;SDS011;64303;53.118;9.044;2023-08-06T03:46:33;7.78;;;6.85;;
75689;SDS011;64303;53.118;9.044;2023-08-06T03:49:01;9.18;;;8.38;;
75689;SDS011;64303;53.118;9.044;2023-08-06T03:51:30;9.93;;;9.00;;
75689;SDS011;64303;53.118;9.044;2023-08-06T03:56:23;8.25;;;7.45;;
75689;SDS011;64303;53.118;9.044;2023-08-06T03:58:50;8.52;;;7.20;;
75689;SDS011;64303;53.118;9.044;2023-08-06T04:01:16;7.78;;;6.75;;
75689;SDS011;64303;53.118;9.044;2023-08-06T04:03:45;9.25;;;7.22;;
75689;SDS011;64303;53.118;9.044;2023-08-06T04:06:12;9.85;;;6.25;;
75689;SDS011;64303;53.118;9.044;2023-08-06T04:08:40;10.30;;;8.60;;
75689;SDS011;64303;53.118;9.044;2023-08-06T04:11:07;10.80;;;8.13;;
75689;SDS011;64303;53.118;9.044;2023-08-06T04:13:33;12.32;;;8.82;;
75689;SDS011;64303;53.118;9.044;2023-08-06T04:16:00;9.10;;;8.20;;
75689;SDS011;64303;53.118;9.044;2023-08-06T04:18:28;6.95;;;4.82;;
75689;SDS011;64303;53.118;9.044;2023-08-06T04:20:55;8.57;;;7.57;;
75689;SDS011;64303;53.118;9.044;2023-08-06T04:23:22;10.98;;;9.15;;
75689;SDS011;64303;53.118;9.044;2023-08-06T04:25:51;11.05;;;9.02;;
75689;SDS011;64303;53.118;9.044;2023-08-06T04:30:44;8.52;;;7.72;;
75689;SDS011;64303;53.118;9.044;2023-08-06T04:33:11;9.10;;;7.70;;
75689;SDS011;64303;53.118;9.044;2023-08-06T04:35:38;11.55;;;7.90;;
75689;SDS011;64303;53.118;9.044;2023-08-06T04:38:04;9.05;;;8.15;;
75689;SDS011;64303;53.118;9.044;2023-08-06T04:40:32;10.18;;;8.43;;
75689;SDS011;64303;53.118;9.044;2023-08-06T04:43:01;11.13;;;7.60;;
75689;SDS011;64303;53.118;9.044;2023-08-06T04:45:31;11.32;;;10.30;;
75689;SDS011;64303;53.118;9.044;2023-08-06T04:47:57;10.43;;;9.45;;
75689;SDS011;64303;53.118;9.044;2023-08-06T04:50:24;10.57;;;9.50;;
75689;SDS011;64303;53.118;9.044;2023-08-06T04:52:51;9.77;;;8.68;;
75689;SDS011;64303;53.118;9.044;2023-08-06T04:55:17;16.05;;;9.48;;
75689;SDS011;64303;53.118;9.044;2023-08-06T04:57:44;9.63;;;8.45;;
75689;SDS011;64303;53.118;9.044;2023-08-06T05:00:12;9.90;;;7.22;;
75689;SDS011;64303;53.118;9.044;2023-08-06T05:02:39;7.95;;;6.53;;
75689;SDS011;64303;53.118;9.044;2023-08-06T05:05:06;10.90;;;7.22;;
75689;SDS011;64303;53.118;9.044;2023-08-06T05:07:33;9.13;;;7.88;;
75689;SDS011;64303;53.118;9.044;2023-08-06T05:10:00;11.07;;;8.57;;
75689;SDS011;64303;53.118;9.044;2023-08-06T05:12:28;10.35;;;8.80;;
75689;SDS011;64303;53.118;9.044;2023-08-06T05:14:55;8.88;;;6.00;;
75689;SDS011;64303;53.118;9.044;2023-08-06T05:17:23;13.77;;;9.02;;
75689;SDS011;64303;53.118;9.044;2023-08-06T05:19:49;11.50;;;10.40;;
75689;SDS011;64303;53.118;9.044;2023-08-06T05:22:16;13.80;;;10.07;;
75689;SDS011;64303;53.118;9.044;2023-08-06T05:24:43;11.25;;;8.23;;
75689;SDS011;64303;53.118;9.044;2023-08-06T05:27:09;9.15;;;8.13;;
75689;SDS011;64303;53.118;9.044;2023-08-06T05:29:36;8.80;;;7.97;;
75689;SDS011;64303;53.118;9.044;2023-08-06T05:32:03;8.98;;;7.88;;
75689;SDS011;64303;53.118;9.044;2023-08-06T05:34:31;8.27;;;7.50;;
75689;SDS011;64303;53.118;9.044;2023-08-06T05:36:58;8.00;;;5.45;;
75689;SDS011;64303;53.118;9.044;2023-08-06T05:39:25;8.82;;;8.02;;
75689;SDS011;64303;53.118;9.044;2023-08-06T05:41:51;10.07;;;8.18;;
75689;SDS011;64303;53.118;9.044;2023-08-06T05:44:18;7.97;;;5.60;;
75689;SDS011;64303;53.118;9.044;2023-08-06T05:46:44;10.80;;;9.75;;
75689;SDS011;64303;53.118;9.044;2023-08-06T05:49:11;11.52;;;9.00;;
75689;SDS011;64303;53.118;9.044;2023-08-06T05:51:40;10.15;;;8.02;;
75689;SDS011;64303;53.118;9.044;2023-08-06T05:54:07;10.70;;;8.63;;
75689;SDS011;64303;53.118;9.044;2023-08-06T05:56:34;9.20;;;7.43;;
75689;SDS011;64303;53.118;9.044;2023-08-06T05:59:01;11.23;;;10.15;;
75689;SDS011;64303;53.118;9.044;2023-08-06T06:01:27;10.95;;;9.95;;
75689;SDS011;64303;53.118;9.044;2023-08-06T06:03:54;11.23;;;9.32;;
75689;SDS011;64303;53.118;9.044;2023-08-06T06:06:20;10.82;;;8.32;;
75689;SDS011;64303;53.118;9.044;2023-08-06T06:08:49;11.93;;;10.73;;
75689;SDS011;64303;53.118;9.044;2023-08-06T06:11:15;10.63;;;8.65;;
75689;SDS011;64303;53.118;9.044;2023-08-06T06:13:44;8.95;;;7.97;;
75689;SDS011;64303;53.118;9.044;2023-08-06T06:16:11;11.02;;;8.88;;
75689;SDS011;64303;53.118;9.044;2023-08-06T06:18:37;11.85;;;9.70;;
75689;SDS011;64303;53.118;9.044;2023-08-06T06:21:04;9.90;;;8.88;;
75689;SDS011;64303;53.118;9.044;2023-08-06T06:23:31;9.02;;;8.13;;
75689;SDS011;64303;53.118;9.044;2023-08-06T06:25:59;8.35;;;5.95;;
75689;SDS011;64303;53.118;9.044;2023-08-06T06:28:26;9.27;;;8.38;;
75689;SDS011;64303;53.118;9.044;2023-08-06T06:30:53;10.50;;;9.40;;
75689;SDS011;64303;53.118;9.044;2023-08-06T06:33:26;8.90;;;7.97;;
75689;SDS011;64303;53.118;9.044;2023-08-06T06:35:53;9.13;;;8.23;;
75689;SDS011;64303;53.118;9.044;2023-08-06T06:38:19;8.85;;;7.97;;
75689;SDS011;64303;53.118;9.044;2023-08-06T06:40:52;8.57;;;7.38;;
75689;SDS011;64303;53.118;9.044;2023-08-06T06:43:21;11.70;;;6.93;;
75689;SDS011;64303;53.118;9.044;2023-08-06T06:45:51;9.20;;;8.40;;
75689;SDS011;64303;53.118;9.044;2023-08-06T06:48:18;7.82;;;7.03;;
75689;SDS011;64303;53.118;9.044;2023-08-06T06:50:46;8.05;;;7.22;;
75689;SDS011;64303;53.118;9.044;2023-08-06T06:53:13;9.40;;;8.52;;
75689;SDS011;64303;53.118;9.044;2023-08-06T06:55:40;10.32;;;9.23;;
75689;SDS011;64303;53.118;9.044;2023-08-06T06:58:06;9.05;;;6.72;;
75689;SDS011;64303;53.118;9.044;2023-08-06T07:00:36;10.60;;;8.85;;
75689;SDS011;64303;53.118;9.044;2023-08-06T07:03:03;7.90;;;7.20;;
75689;SDS011;64303;53.118;9.044;2023-08-06T07:05:30;8.88;;;6.13;;
75689;SDS011;64303;53.118;9.044;2023-08-06T07:07:56;6.85;;;5.40;;
75689;SDS011;64303;53.118;9.044;2023-08-06T07:10:23;10.93;;;8.38;;
75689;SDS011;64303;53.118;9.044;2023-08-06T07:12:50;7.93;;;7.18;;
75689;SDS011;64303;53.118;9.044;2023-08-06T07:15:16;8.88;;;8.07;;
75689;SDS011;64303;53.118;9.044;2023-08-06T07:17:45;9.07;;;8.18;;
75689;SDS011;64303;53.118;9.044;2023-08-06T07:20:11;7.72;;;7.03;;
75689;SDS011;64303;53.118;9.044;2023-08-06T07:22:38;6.32;;;5.18;;
75689;SDS011;64303;53.118;9.044;2023-08-06T07:25:05;7.28;;;6.57;;
75689;SDS011;64303;53.118;9.044;2023-08-06T07:27:32;8.45;;;7.65;;
75689;SDS011;64303;53.118;9.044;2023-08-06T07:29:58;9.35;;;7.55;;
75689;SDS011;64303;53.118;9.044;2023-08-06T07:32:25;6.63;;;6.03;;
75689;SDS011;64303;53.118;9.044;2023-08-06T07:34:54;7.00;;;6.35;;
75689;SDS011;64303;53.118;9.044;2023-08-06T07:37:24;7.10;;;6.40;;
75689;SDS011;64303;53.118;9.044;2023-08-06T07:39:53;7.80;;;7.05;;
75689;SDS011;64303;53.118;9.044;2023-08-06T07:42:20;7.60;;;6.88;;
75689;SDS011;64303;53.118;9.044;2023-08-06T07:44:49;8.15;;;7.35;;
75689;SDS011;64303;53.118;9.044;2023-08-06T07:47:17;6.22;;;4.07;;
75689;SDS011;64303;53.118;9.044;2023-08-06T07:49:44;9.57;;;5.82;;
75689;SDS011;64303;53.118;9.044;2023-08-06T07:52:12;7.35;;;5.75;;
75689;SDS011;64303;53.118;9.044;2023-08-06T07:54:39;7.18;;;6.47;;
75689;SDS011;64303;53.118;9.044;2023-08-06T07:57:05;9.05;;;8.23;;
75689;SDS011;64303;53.118;9.044;2023-08-06T07:59:32;10.57;;;8.63;;
75689;SDS011;64303;53.118;9.044;2023-08-06T08:01:59;8.02;;;6.45;;
75689;SDS011;64303;53.118;9.044;2023-08-06T08:04:26;7.07;;;5.50;;
75689;SDS011;64303;53.118;9.044;2023-08-06T08:06:53;7.63;;;6.93;;
75689;SDS011;64303;53.118;9.044;2023-08-06T08:09:21;7.70;;;6.80;;
75689;SDS011;64303;53.118;9.044;2023-08-06T08:11:48;6.82;;;6.20;;
75689;SDS011;64303;53.118;9.044;2023-08-06T08:14:15;7.15;;;6.45;;
75689;SDS011;64303;53.118;9.044;2023-08-06T08:16:42;8.18;;;7.47;;
75689;SDS011;64303;53.118;9.044;2023-08-06T08:19:09;7.85;;;7.15;;
75689;SDS011;64303;53.118;9.044;2023-08-06T08:21:35;6.88;;;4.30;;
75689;SDS011;64303;53.118;9.044;2023-08-06T08:24:03;5.85;;;4.50;;
75689;SDS011;64303;53.118;9.044;2023-08-06T08:26:32;6.72;;;6.13;;
75689;SDS011;64303;53.118;9.044;2023-08-06T08:28:58;6.60;;;6.00;;
75689;SDS011;64303;53.118;9.044;2023-08-06T08:31:25;6.57;;;5.97;;
75689;SDS011;64303;53.118;9.044;2023-08-06T08:33:54;5.90;;;4.00;;
75689;SDS011;64303;53.118;9.044;2023-08-06T08:36:20;5.28;;;3.85;;
75689;SDS011;64303;53.118;9.044;2023-08-06T08:38:47;8.13;;;6.40;;
75689;SDS011;64303;53.118;9.044;2023-08-06T08:41:15;9.02;;;8.32;;
75689;SDS011;64303;53.118;9.044;2023-08-06T08:46:09;6.35;;;3.78;;
75689;SDS011;64303;53.118;9.044;2023-08-06T08:48:38;5.18;;;3.45;;
75689;SDS011;64303;53.118;9.044;2023-08-06T08:51:04;5.13;;;3.58;;
75689;SDS011;64303;53.118;9.044;2023-08-06T08:53:33;5.70;;;4.63;;
75689;SDS011;64303;53.118;9.044;2023-08-06T08:55:59;6.28;;;5.78;;
75689;SDS011;64303;53.118;9.044;2023-08-06T08:58:26;6.03;;;4.82;;
75689;SDS011;64303;53.118;9.044;2023-08-06T09:00:54;6.45;;;5.85;;
75689;SDS011;64303;53.118;9.044;2023-08-06T09:03:21;5.50;;;4.40;;
75689;SDS011;64303;53.118;9.044;2023-08-06T09:05:49;6.10;;;5.15;;
75689;SDS011;64303;53.118;9.044;2023-08-06T09:08:17;5.78;;;5.22;;
75689;SDS011;64303;53.118;9.044;2023-08-06T09:10:44;5.40;;;3.80;;
75689;SDS011;64303;53.118;9.044;2023-08-06T09:13:15;4.55;;;3.60;;
75689;SDS011;64303;53.118;9.044;2023-08-06T09:15:42;6.25;;;5.75;;
75689;SDS011;64303;53.118;9.044;2023-08-06T09:18:10;5.65;;;5.15;;
75689;SDS011;64303;53.118;9.044;2023-08-06T09:20:37;4.88;;;2.95;;
75689;SDS011;64303;53.118;9.044;2023-08-06T09:23:06;3.72;;;2.92;;
75689;SDS011;64303;53.118;9.044;2023-08-06T09:25:33;3.97;;;2.85;;
75689;SDS011;64303;53.118;9.044;2023-08-06T09:28:04;4.15;;;3.75;;
75689;SDS011;64303;53.118;9.044;2023-08-06T09:30:31;3.67;;;3.15;;
75689;SDS011;64303;53.118;9.044;2023-08-06T09:32:59;4.13;;;3.28;;
75689;SDS011;64303;53.118;9.044;2023-08-06T09:35:29;5.35;;;4.95;;
75689;SDS011;64303;53.118;9.044;2023-08-06T09:37:56;4.57;;;4.18;;
75689;SDS011;64303;53.118;9.044;2023-08-06T09:40:32;3.13;;;2.42;;
75689;SDS011;64303;53.118;9.044;2023-08-06T09:42:59;6.70;;;6.15;;
75689;SDS011;64303;53.118;9.044;2023-08-06T09:45:28;3.67;;;3.17;;
75689;SDS011;64303;53.118;9.044;2023-08-06T09:47:56;4.07;;;3.55;;
75689;SDS011;64303;53.118;9.044;2023-08-06T09:50:23;4.47;;;4.03;;
75689;SDS011;64303;53.118;9.044;2023-08-06T09:52:56;5.50;;;5.00;;
75689;SDS011;64303;53.118;9.044;2023-08-06T09:55:23;4.30;;;3.50;;
75689;SDS011;64303;53.118;9.044;2023-08-06T10:00:16;4.40;;;3.90;;
75689;SDS011;64303;53.118;9.044;2023-08-06T10:02:46;5.07;;;3.95;;
75689;SDS011;64303;53.118;9.044;2023-08-06T10:05:14;4.53;;;4.13;;
75689;SDS011;64303;53.118;9.044;2023-08-06T10:07:43;5.20;;;4.55;;
75689;SDS011;64303;53.118;9.044;2023-08-06T10:10:10;3.70;;;3.22;;
75689;SDS011;64303;53.118;9.044;2023-08-06T10:12:37;5.43;;;4.93;;
75689;SDS011;64303;53.118;9.044;2023-08-06T10:15:06;3.90;;;3.35;;
75689;SDS011;64303;53.118;9.044;2023-08-06T10:17:35;4.18;;;2.50;;
75689;SDS011;64303;53.118;9.044;2023-08-06T10:22:30;4.28;;;3.38;;
75689;SDS011;64303;53.118;9.044;2023-08-06T10:25:00;4.32;;;3.92;;
75689;SDS011;64303;53.118;9.044;2023-08-06T10:27:30;4.03;;;3.63;;
75689;SDS011;64303;53.118;9.044;2023-08-06T10:32:49;3.20;;;2.25;;
75689;SDS011;64303;53.118;9.044;2023-08-06T10:35:29;5.90;;;2.45;;
75689;SDS011;64303;53.118;9.044;2023-08-06T10:37:57;3.92;;;2.47;;
75689;SDS011;64303;53.118;9.044;2023-08-06T10:40:35;3.60;;;2.35;;
75689;SDS011;64303;53.118;9.044;2023-08-06T10:43:03;4.90;;;2.75;;
75689;SDS011;64303;53.118;9.044;2023-08-06T10:45:33;2.85;;;2.17;;
75689;SDS011;64303;53.118;9.044;2023-08-06T10:48:01;6.55;;;5.80;;
75689;SDS011;64303;53.118;9.044;2023-08-06T10:50:28;4.35;;;2.53;;
75689;SDS011;64303;53.118;9.044;2023-08-06T10:52:56;4.78;;;4.25;;
75689;SDS011;64303;53.118;9.044;2023-08-06T10:55:24;2.88;;;2.38;;
75689;SDS011;64303;53.118;9.044;2023-08-06T10:57:53;3.17;;;2.40;;
75689;SDS011;64303;53.118;9.044;2023-08-06T11:00:20;3.20;;;2.78;;
75689;SDS011;64303;53.118;9.044;2023-08-06T11:02:48;2.83;;;1.75;;
75689;SDS011;64303;53.118;9.044;2023-08-06T11:05:15;3.55;;;2.97;;
75689;SDS011;64303;53.118;9.044;2023-08-06T11:07:41;3.72;;;2.88;;
75689;SDS011;64303;53.118;9.044;2023-08-06T11:10:09;3.80;;;3.50;;
75689;SDS011;64303;53.118;9.044;2023-08-06T11:12:36;2.88;;;2.58;;
75689;SDS011;64303;53.118;9.044;2023-08-06T11:15:05;2.45;;;1.50;;
75689;SDS011;64303;53.118;9.044;2023-08-06T11:17:33;4.38;;;2.40;;
75689;SDS011;64303;53.118;9.044;2023-08-06T11:20:00;3.45;;;2.40;;
75689;SDS011;64303;53.118;9.044;2023-08-06T11:24:54;3.40;;;3.10;;
75689;SDS011;64303;53.118;9.044;2023-08-06T11:29:48;4.07;;;2.75;;
75689;SDS011;64303;53.118;9.044;2023-08-06T11:32:16;2.83;;;1.63;;
75689;SDS011;64303;53.118;9.044;2023-08-06T11:34:43;3.53;;;2.80;;
75689;SDS011;64303;53.118;9.044;2023-08-06T11:37:09;4.05;;;2.00;;
75689;SDS011;64303;53.118;9.044;2023-08-06T11:39:37;2.65;;;2.40;;
75689;SDS011;64303;53.118;9.044;2023-08-06T11:42:04;2.95;;;2.63;;
75689;SDS011;64303;53.118;9.044;2023-08-06T11:44:31;4.00;;;2.35;;
75689;SDS011;64303;53.118;9.044;2023-08-06T11:46:59;3.47;;;1.90;;
75689;SDS011;64303;53.118;9.044;2023-08-06T11:49:40;2.70;;;2.00;;
75689;SDS011;64303;53.118;9.044;2023-08-06T11:52:10;2.70;;;1.77;;
75689;SDS011;64303;53.118;9.044;2023-08-06T11:54:39;2.33;;;1.42;;
75689;SDS011;64303;53.118;9.044;2023-08-06T11:57:05;4.40;;;1.95;;
75689;SDS011;64303;53.118;9.044;2023-08-06T11:59:32;2.65;;;1.50;;
75689;SDS011;64303;53.118;9.044;2023-08-06T12:01:59;2.70;;;1.42;;
75689;SDS011;64303;53.118;9.044;2023-08-06T12:04:27;2.67;;;1.77;;
75689;SDS011;64303;53.118;9.044;2023-08-06T12:06:55;2.30;;;1.60;;
75689;SDS011;64303;53.118;9.044;2023-08-06T12:09:31;3.15;;;2.83;;
75689;SDS011;64303;53.118;9.044;2023-08-06T12:11:57;3.15;;;2.65;;
75689;SDS011;64303;53.118;9.044;2023-08-06T12:14:24;3.10;;;2.80;;
75689;SDS011;64303;53.118;9.044;2023-08-06T12:16:51;2.45;;;1.95;;
75689;SDS011;64303;53.118;9.044;2023-08-06T12:19:17;3.42;;;2.03;;
75689;SDS011;64303;53.118;9.044;2023-08-06T12:21:44;2.70;;;1.90;;
75689;SDS011;64303;53.118;9.044;2023-08-06T12:24:12;2.53;;;1.30;;
75689;SDS011;64303;53.118;9.044;2023-08-06T12:26:39;2.40;;;1.38;;
75689;SDS011;64303;53.118;9.044;2023-08-06T12:29:05;2.92;;;1.70;;
75689;SDS011;64303;53.118;9.044;2023-08-06T12:31:32;3.47;;;2.15;;
75689;SDS011;64303;53.118;9.044;2023-08-06T12:33:59;2.72;;;1.83;;
75689;SDS011;64303;53.118;9.044;2023-08-06T12:36:26;2.28;;;1.83;;
75689;SDS011;64303;53.118;9.044;2023-08-06T12:38:52;3.20;;;1.70;;
75689;SDS011;64303;53.118;9.044;2023-08-06T12:41:20;2.72;;;1.77;;
75689;SDS011;64303;53.118;9.044;2023-08-06T12:43:47;2.78;;;1.75;;
75689;SDS011;64303;53.118;9.044;2023-08-06T12:46:14;2.45;;;2.10;;
75689;SDS011;64303;53.118;9.044;2023-08-06T12:48:40;4.15;;;2.13;;
75689;SDS011;64303;53.118;9.044;2023-08-06T12:51:07;2.10;;;1.10;;
75689;SDS011;64303;53.118;9.044;2023-08-06T12:53:33;3.67;;;1.85;;
75689;SDS011;64303;53.118;9.044;2023-08-06T12:56:01;2.53;;;1.50;;
75689;SDS011;64303;53.118;9.044;2023-08-06T12:58:29;3.25;;;1.67;;
75689;SDS011;64303;53.118;9.044;2023-08-06T13:00:55;2.60;;;1.48;;
75689;SDS011;64303;53.118;9.044;2023-08-06T13:03:22;4.22;;;2.72;;
75689;SDS011;64303;53.118;9.044;2023-08-06T13:05:49;2.95;;;2.30;;
75689;SDS011;64303;53.118;9.044;2023-08-06T13:08:16;2.97;;;1.05;;
75689;SDS011;64303;53.118;9.044;2023-08-06T13:10:43;2.88;;;1.70;;
75689;SDS011;64303;53.118;9.044;2023-08-06T13:13:10;2.75;;;1.70;;
75689;SDS011;64303;53.118;9.044;2023-08-06T13:15:38;3.67;;;1.60;;
75689;SDS011;64303;53.118;9.044;2023-08-06T13:18:05;2.25;;;1.33;;
75689;SDS011;64303;53.118;9.044;2023-08-06T13:20:31;3.30;;;2.42;;
75689;SDS011;64303;53.118;9.044;2023-08-06T13:22:58;3.65;;;2.78;;
75689;SDS011;64303;53.118;9.044;2023-08-06T13:25:26;2.92;;;2.15;;
75689;SDS011;64303;53.118;9.044;2023-08-06T13:27:53;3.80;;;1.77;;
75689;SDS011;64303;53.118;9.044;2023-08-06T13:30:20;2.90;;;1.83;;
75689;SDS011;64303;53.118;9.044;2023-08-06T13:32:49;3.53;;;2.85;;
75689;SDS011;64303;53.118;9.044;2023-08-06T13:35:16;2.92;;;1.40;;
75689;SDS011;64303;53.118;9.044;2023-08-06T13:37:43;3.40;;;2.17;;
75689;SDS011;64303;53.118;9.044;2023-08-06T13:40:10;2.85;;;1.88;;
75689;SDS011;64303;53.118;9.044;2023-08-06T13:42:37;2.80;;;1.70;;
75689;SDS011;64303;53.118;9.044;2023-08-06T13:45:04;2.78;;;1.67;;
75689;SDS011;64303;53.118;9.044;2023-08-06T13:49:59;3.90;;;2.20;;
75689;SDS011;64303;53.118;9.044;2023-08-06T13:52:26;2.30;;;1.45;;
75689;SDS011;64303;53.118;9.044;2023-08-06T13:54:53;2.55;;;1.85;;
75689;SDS011;64303;53.118;9.044;2023-08-06T13:57:19;2.67;;;2.25;;
75689;SDS011;64303;53.118;9.044;2023-08-06T13:59:46;2.75;;;2.30;;
75689;SDS011;64303;53.118;9.044;2023-08-06T14:02:12;3.22;;;2.90;;
75689;SDS011;64303;53.118;9.044;2023-08-06T14:04:39;6.40;;;2.53;;
75689;SDS011;64303;53.118;9.044;2023-08-06T14:07:07;4.50;;;3.00;;
75689;SDS011;64303;53.118;9.044;2023-08-06T14:09:34;4.05;;;3.65;;
75689;SDS011;64303;53.118;9.044;2023-08-06T14:12:00;4.82;;;3.35;;
75689;SDS011;64303;53.118;9.044;2023-08-06T14:14:28;4.15;;;3.28;;
75689;SDS011;64303;53.118;9.044;2023-08-06T14:16:55;4.40;;;3.30;;
75689;SDS011;64303;53.118;9.044;2023-08-06T14:19:21;5.28;;;3.58;;
75689;SDS011;64303;53.118;9.044;2023-08-06T14:21:48;6.10;;;3.42;;
75689;SDS011;64303;53.118;9.044;2023-08-06T14:24:16;5.55;;;2.95;;
75689;SDS011;64303;53.118;9.044;2023-08-06T14:26:43;4.22;;;3.83;;
75689;SDS011;64303;53.118;9.044;2023-08-06T14:29:10;5.28;;;3.20;;
75689;SDS011;64303;53.118;9.044;2023-08-06T14:31:36;3.63;;;2.80;;
75689;SDS011;64303;53.118;9.044;2023-08-06T14:34:03;5.25;;;3.20;;
75689;SDS011;64303;53.118;9.044;2023-08-06T14:36:30;3.03;;;2.55;;
75689;SDS011;64303;53.118;9.044;2023-08-06T14:38:57;4.03;;;2.22;;
75689;SDS011;64303;53.118;9.044;2023-08-06T14:41:24;4.07;;;3.60;;
75689;SDS011;64303;53.118;9.044;2023-08-06T14:43:51;4.57;;;2.60;;
75689;SDS011;64303;53.118;9.044;2023-08-06T14:46:18;3.83;;;2.90;;
75689;SDS011;64303;53.118;9.044;2023-08-06T14:48:45;5.05;;;3.80;;
75689;SDS011;64303;53.118;9.044;2023-08-06T14:51:11;3.97;;;2.50;;
75689;SDS011;64303;53.118;9.044;2023-08-06T14:53:38;6.45;;;2.60;;
75689;SDS011;64303;53.118;9.044;2023-08-06T14:56:05;5.47;;;4.90;;
75689;SDS011;64303;53.118;9.044;2023-08-06T14:58:33;5.47;;;3.00;;
75689;SDS011;64303;53.118;9.044;2023-08-06T15:01:00;4.30;;;3.00;;
75689;SDS011;64303;53.118;9.044;2023-08-06T15:03:26;4.07;;;2.45;;
75689;SDS011;64303;53.118;9.044;2023-08-06T15:05:54;4.15;;;3.47;;
75689;SDS011;64303;53.118;9.044;2023-08-06T15:08:20;4.47;;;2.38;;
75689;SDS011;64303;53.118;9.044;2023-08-06T15:10:49;5.60;;;4.72;;
75689;SDS011;64303;53.118;9.044;2023-08-06T15:13:17;5.47;;;3.60;;